Terminal Aerodrome Forecast
Issued by NWS

Home | Current Version | Previous Version | Text Only | Print | Product List | Glossary On
Versions: 1 2 3 4 5 6 7 8 9 10 11 12 13 14 15 16
000
FTUS42 KMLB 201648 AAC
TAFLEE
TAF AMD
KLEE 201648Z 2017/2112 04012KT P6SM SCT030 BKN035
     FM201800 05013G21KT P6SM SCT025 BKN035
     FM210200 04010KT P6SM SCT015 BKN040=

USA.gov is the U.S. government's official web portal to all federal, state and local government web resources and services.